createdAt,value
2016-07-06T00:00:06.193Z,1013.87
2016-07-06T00:00:16.189Z,1013.86
2016-07-06T00:00:26.186Z,1013.84
2016-07-06T00:00:36.175Z,1013.79
2016-07-06T00:00:46.169Z,1013.74
2016-07-06T00:00:56.147Z,1013.82
2016-07-06T00:01:06.146Z,1013.82
2016-07-06T00:01:16.162Z,1013.77
2016-07-06T00:01:26.154Z,1013.89
2016-07-06T00:01:36.144Z,1013.89
2016-07-06T00:01:46.125Z,1013.85
2016-07-06T00:01:56.134Z,1013.81
2016-07-06T00:02:06.128Z,1013.82
2016-07-06T00:02:16.126Z,1013.81
2016-07-06T00:02:26.128Z,1013.81
2016-07-06T00:02:36.108Z,1013.83
2016-07-06T00:02:46.119Z,1013.81
2016-07-06T00:02:56.108Z,1013.81
2016-07-06T00:03:06.102Z,1013.78
2016-07-06T00:03:16.094Z,1013.83
2016-07-06T00:03:26.097Z,1013.83
2016-07-06T00:03:36.065Z,1013.86
2016-07-06T00:03:46.061Z,1013.8
2016-07-06T00:03:56.081Z,1013.81
2016-07-06T00:04:06.076Z,1013.83
2016-07-06T00:04:16.067Z,1013.81
2016-07-06T00:04:26.059Z,1013.79
2016-07-06T00:04:36.064Z,1013.88
2016-07-06T00:04:46.051Z,1013.78
2016-07-06T00:04:56.048Z,1013.81
2016-07-06T00:05:06.039Z,1013.82
2016-07-06T00:05:16.038Z,1013.8
2016-07-06T00:05:26.035Z,1013.81
2016-07-06T00:05:36.015Z,1013.83
2016-07-06T00:05:46.019Z,1013.84
2016-07-06T00:05:56.018Z,1013.88
2016-07-06T00:06:06.014Z,1013.84
2016-07-06T00:06:16.011Z,1013.87
2016-07-06T00:06:26.004Z,1013.88
2016-07-06T00:06:36.006Z,1013.85
2016-07-06T00:06:45.998Z,1013.84
2016-07-06T00:06:55.989Z,1013.79
2016-07-06T00:07:05.989Z,1013.87
2016-07-06T00:07:15.979Z,1013.84
2016-07-06T00:07:25.958Z,1013.82
2016-07-06T00:07:35.967Z,1013.85
2016-07-06T00:07:45.960Z,1013.84
2016-07-06T00:07:55.963Z,1013.85
2016-07-06T00:08:05.959Z,1013.86
2016-07-06T00:08:15.951Z,1013.88
2016-07-06T00:08:25.944Z,1013.86
2016-07-06T00:08:35.938Z,1013.81
2016-07-06T00:08:45.935Z,1013.83
2016-07-06T00:08:55.925Z,1013.9
2016-07-06T00:09:05.924Z,1013.89
2016-07-06T00:09:15.919Z,1013.81
2016-07-06T00:09:25.910Z,1013.88
2016-07-06T00:09:35.915Z,1013.87
2016-07-06T00:09:45.904Z,1013.85
2016-07-06T00:09:55.904Z,1013.89
2016-07-06T00:10:05.908Z,1013.82
2016-07-06T00:10:15.896Z,1013.84
2016-07-06T00:10:25.879Z,1013.85
2016-07-06T00:10:35.882Z,1013.83
2016-07-06T00:10:45.872Z,1013.92
2016-07-06T00:10:55.877Z,1013.88
2016-07-06T00:11:05.863Z,1013.89
2016-07-06T00:11:15.859Z,1013.87
2016-07-06T00:11:25.854Z,1013.85
2016-07-06T00:11:35.852Z,1013.9
2016-07-06T00:11:45.851Z,1013.86
2016-07-06T00:11:55.832Z,1013.84
2016-07-06T00:12:05.832Z,1013.83
2016-07-06T00:12:15.828Z,1013.88
2016-07-06T00:12:25.821Z,1013.83
2016-07-06T00:12:35.819Z,1013.83
2016-07-06T00:12:45.821Z,1013.79
2016-07-06T00:12:55.809Z,1013.86
2016-07-06T00:13:05.817Z,1013.84
2016-07-06T00:13:15.784Z,1013.87
2016-07-06T00:13:25.784Z,1013.87
2016-07-06T00:13:35.786Z,1013.84
2016-07-06T00:13:45.786Z,1013.87
2016-07-06T00:13:55.779Z,1013.9
2016-07-06T00:14:05.771Z,1013.87
2016-07-06T00:14:15.771Z,1013.88
2016-07-06T00:14:25.767Z,1013.92
2016-07-06T00:14:36.394Z,1013.93
2016-07-06T00:14:45.757Z,1013.94
2016-07-06T00:14:55.744Z,1013.94
2016-07-06T00:15:05.746Z,1013.92
2016-07-06T00:15:15.746Z,1013.91
2016-07-06T00:15:25.732Z,1013.86
2016-07-06T00:15:35.724Z,1013.9
2016-07-06T00:15:45.723Z,1013.91
2016-07-06T00:15:55.717Z,1013.92
2016-07-06T00:16:05.715Z,1013.91
2016-07-06T00:16:15.709Z,1013.92
2016-07-06T00:16:25.703Z,1013.88
2016-07-06T00:16:35.710Z,1013.93
2016-07-06T00:16:45.700Z,1013.92
2016-07-06T00:16:55.689Z,1013.93
2016-07-06T00:17:05.666Z,1013.9
2016-07-06T00:17:15.677Z,1013.95
2016-07-06T00:17:25.674Z,1013.91
2016-07-06T00:17:35.670Z,1013.94
2016-07-06T00:17:45.671Z,1013.95
2016-07-06T00:17:55.660Z,1013.89
2016-07-06T00:18:05.654Z,1013.91
2016-07-06T00:18:15.654Z,1013.92
2016-07-06T00:18:25.639Z,1013.89
2016-07-06T00:18:35.639Z,1013.91
2016-07-06T00:18:45.631Z,1013.91
2016-07-06T00:18:55.611Z,1013.91
2016-07-06T00:19:05.623Z,1013.9
2016-07-06T00:19:15.598Z,1013.88
2016-07-06T00:19:25.621Z,1013.87
2016-07-06T00:19:35.597Z,1013.9
2016-07-06T00:19:45.593Z,1013.91
2016-07-06T00:19:55.584Z,1013.92
2016-07-06T00:20:05.582Z,1013.89
2016-07-06T00:20:15.588Z,1013.93
2016-07-06T00:20:25.583Z,1013.92
2016-07-06T00:20:35.571Z,1013.89
2016-07-06T00:20:45.559Z,1013.92
2016-07-06T00:20:55.578Z,1013.87
2016-07-06T00:21:05.567Z,1013.89
2016-07-06T00:21:15.564Z,1013.91
2016-07-06T00:21:26.189Z,1013.88
2016-07-06T00:21:35.553Z,1013.9
2016-07-06T00:21:45.542Z,1013.97
2016-07-06T00:21:55.540Z,1013.93
2016-07-06T00:22:05.535Z,1013.92
2016-07-06T00:22:15.531Z,1013.88
2016-07-06T00:22:25.525Z,1013.87
2016-07-06T00:22:35.520Z,1013.92
2016-07-06T00:22:45.503Z,1013.96
2016-07-06T00:22:55.495Z,1013.92
2016-07-06T00:23:05.501Z,1013.89
2016-07-06T00:23:15.502Z,1013.92
2016-07-06T00:23:25.494Z,1013.89
2016-07-06T00:23:35.487Z,1013.96
2016-07-06T00:23:45.463Z,1013.91
2016-07-06T00:23:55.468Z,1013.93
2016-07-06T00:24:05.475Z,1013.89
2016-07-06T00:24:15.455Z,1013.84
2016-07-06T00:24:25.441Z,1013.89
2016-07-06T00:24:35.441Z,1013.9
2016-07-06T00:24:45.448Z,1013.84
2016-07-06T00:24:55.439Z,1013.9
2016-07-06T00:25:05.436Z,1013.85
2016-07-06T00:25:15.433Z,1013.89
2016-07-06T00:25:25.413Z,1013.91
2016-07-06T00:25:35.418Z,1013.89
2016-07-06T00:25:45.410Z,1013.88
2016-07-06T00:25:55.406Z,1013.9
2016-07-06T00:26:05.407Z,1013.9
2016-07-06T00:26:15.394Z,1013.87
2016-07-06T00:26:25.395Z,1013.89
2016-07-06T00:26:35.390Z,1013.84
2016-07-06T00:26:45.381Z,1013.88
2016-07-06T00:26:55.377Z,1013.91
2016-07-06T00:27:05.375Z,1013.9
2016-07-06T00:27:15.368Z,1013.92
2016-07-06T00:27:25.366Z,1013.95
2016-07-06T00:27:35.357Z,1013.95
2016-07-06T00:27:45.351Z,1013.93
2016-07-06T00:27:55.351Z,1013.91
2016-07-06T00:28:05.346Z,1013.91
2016-07-06T00:28:15.345Z,1013.91
2016-07-06T00:28:25.343Z,1013.92
2016-07-06T00:28:35.329Z,1013.91
2016-07-06T00:28:45.320Z,1013.92
2016-07-06T00:28:55.322Z,1013.87
2016-07-06T00:29:05.321Z,1013.95
2016-07-06T00:29:15.320Z,1013.93
2016-07-06T00:29:25.317Z,1013.96
2016-07-06T00:29:35.310Z,1013.99
2016-07-06T00:29:45.304Z,1013.95
2016-07-06T00:29:55.299Z,1013.93
2016-07-06T00:30:05.289Z,1013.94
2016-07-06T00:30:15.290Z,1013.97
2016-07-06T00:30:25.284Z,1013.96
2016-07-06T00:30:35.279Z,1013.92
2016-07-06T00:30:45.255Z,1013.94
2016-07-06T00:30:55.273Z,1013.95
2016-07-06T00:31:05.264Z,1013.94
2016-07-06T00:31:15.260Z,1013.96
2016-07-06T00:31:25.262Z,1013.97
2016-07-06T00:31:35.251Z,1013.94
2016-07-06T00:31:45.237Z,1013.94
2016-07-06T00:31:55.236Z,1013.94
2016-07-06T00:32:05.232Z,1013.95
2016-07-06T00:32:15.229Z,1013.97
2016-07-06T00:32:25.226Z,1013.94
2016-07-06T00:32:35.226Z,1013.96
2016-07-06T00:32:45.214Z,1013.96
2016-07-06T00:32:55.202Z,1013.94
2016-07-06T00:33:05.208Z,1013.95
2016-07-06T00:33:15.202Z,1013.96
2016-07-06T00:33:25.197Z,1013.95
2016-07-06T00:33:35.193Z,1013.92
2016-07-06T00:33:45.180Z,1013.93
2016-07-06T00:33:55.159Z,1013.95
2016-07-06T00:34:05.158Z,1013.92
2016-07-06T00:34:15.150Z,1013.9
2016-07-06T00:34:25.170Z,1013.95
2016-07-06T00:34:35.141Z,1013.96
2016-07-06T00:34:45.136Z,1013.98
2016-07-06T00:34:55.131Z,1013.91
2016-07-06T00:35:05.135Z,1013.93
2016-07-06T00:35:15.140Z,1013.93
2016-07-06T00:35:25.112Z,1013.92
2016-07-06T00:35:35.106Z,1013.93
2016-07-06T00:35:45.768Z,1013.95
2016-07-06T00:35:55.128Z,1013.95
2016-07-06T00:36:05.094Z,1013.94
2016-07-06T00:36:15.108Z,1013.94
2016-07-06T00:36:25.102Z,1013.92
2016-07-06T00:36:35.105Z,1013.88
2016-07-06T00:36:45.094Z,1013.88
2016-07-06T00:36:55.093Z,1013.89
2016-07-06T00:37:05.081Z,1013.9
2016-07-06T00:37:15.085Z,1013.89
2016-07-06T00:37:25.053Z,1013.96
2016-07-06T00:37:35.067Z,1013.96
2016-07-06T00:37:45.071Z,1013.9
2016-07-06T00:37:55.059Z,1013.87
2016-07-06T00:38:05.060Z,1013.93
2016-07-06T00:38:15.051Z,1013.91
2016-07-06T00:38:25.043Z,1013.89
2016-07-06T00:38:35.037Z,1013.91
2016-07-06T00:38:45.036Z,1013.89
2016-07-06T00:38:55.029Z,1013.89
2016-07-06T00:39:05.011Z,1013.89
2016-07-06T00:39:15.021Z,1013.88
2016-07-06T00:39:24.998Z,1013.9
2016-07-06T00:39:34.993Z,1013.86
2016-07-06T00:39:44.986Z,1013.86
2016-07-06T00:39:54.979Z,1013.9
2016-07-06T00:40:04.992Z,1013.84
2016-07-06T00:40:14.991Z,1013.82
2016-07-06T00:40:25.627Z,1013.85
2016-07-06T00:40:34.981Z,1013.85
2016-07-06T00:40:44.968Z,1013.87
2016-07-06T00:40:54.949Z,1013.87
2016-07-06T00:41:04.944Z,1013.88
2016-07-06T00:41:14.963Z,1013.82
2016-07-06T00:41:24.956Z,1013.83
2016-07-06T00:41:34.959Z,1013.86
2016-07-06T00:41:44.942Z,1013.79
2016-07-06T00:41:54.937Z,1013.84
2016-07-06T00:42:04.936Z,1013.84
2016-07-06T00:42:15.563Z,1013.86
2016-07-06T00:42:24.927Z,1013.85
2016-07-06T00:42:34.920Z,1013.87
2016-07-06T00:42:44.923Z,1013.88
2016-07-06T00:42:54.897Z,1013.89
2016-07-06T00:43:04.891Z,1013.83
2016-07-06T00:43:14.896Z,1013.86
2016-07-06T00:43:24.892Z,1013.89
2016-07-06T00:43:34.883Z,1013.86
2016-07-06T00:43:44.883Z,1013.91
2016-07-06T00:43:54.882Z,1013.84
2016-07-06T00:44:04.875Z,1013.86
2016-07-06T00:44:14.877Z,1013.87
2016-07-06T00:44:24.877Z,1013.87
2016-07-06T00:44:34.860Z,1013.86
2016-07-06T00:44:44.851Z,1013.88
2016-07-06T00:44:54.844Z,1013.84
2016-07-06T00:45:04.849Z,1013.85
2016-07-06T00:45:14.824Z,1013.88
2016-07-06T00:45:24.836Z,1013.88
2016-07-06T00:45:34.831Z,1013.87
2016-07-06T00:45:44.824Z,1013.89
2016-07-06T00:45:54.808Z,1013.9
2016-07-06T00:46:04.801Z,1013.87
2016-07-06T00:46:14.803Z,1013.86
2016-07-06T00:46:24.802Z,1013.88
2016-07-06T00:46:34.802Z,1013.86
2016-07-06T00:46:44.800Z,1013.9
2016-07-06T00:46:54.793Z,1013.91
2016-07-06T00:47:04.787Z,1013.88
2016-07-06T00:47:14.783Z,1013.88
2016-07-06T00:47:24.776Z,1013.86
2016-07-06T00:47:34.772Z,1013.88
2016-07-06T00:47:44.770Z,1013.86
2016-07-06T00:47:54.765Z,1013.86
2016-07-06T00:48:04.756Z,1013.85
2016-07-06T00:48:14.754Z,1013.81
2016-07-06T00:48:24.745Z,1013.82
2016-07-06T00:48:34.743Z,1013.84
2016-07-06T00:48:44.735Z,1013.82
2016-07-06T00:48:54.730Z,1013.82
2016-07-06T00:49:04.732Z,1013.77
2016-07-06T00:49:14.723Z,1013.77
2016-07-06T00:49:25.364Z,1013.87
2016-07-06T00:49:34.713Z,1013.81
2016-07-06T00:49:44.710Z,1013.79
2016-07-06T00:49:54.702Z,1013.82
2016-07-06T00:50:04.693Z,1013.78
2016-07-06T00:50:14.689Z,1013.79
2016-07-06T00:50:24.685Z,1013.78
2016-07-06T00:50:34.681Z,1013.76
2016-07-06T00:50:44.674Z,1013.81
2016-07-06T00:50:54.670Z,1013.8
2016-07-06T00:51:04.656Z,1013.81
2016-07-06T00:51:14.653Z,1013.85
2016-07-06T00:51:24.657Z,1013.83
2016-07-06T00:51:34.643Z,1013.85
2016-07-06T00:51:44.643Z,1013.81
2016-07-06T00:51:54.635Z,1013.81
2016-07-06T00:52:04.634Z,1013.8
2016-07-06T00:52:14.633Z,1013.8
2016-07-06T00:52:24.617Z,1013.83
2016-07-06T00:52:34.612Z,1013.8
2016-07-06T00:52:44.611Z,1013.79
2016-07-06T00:52:54.613Z,1013.8
2016-07-06T00:53:04.605Z,1013.78
2016-07-06T00:53:14.584Z,1013.79
2016-07-06T00:53:24.590Z,1013.82
2016-07-06T00:53:34.581Z,1013.84
2016-07-06T00:53:44.588Z,1013.8
2016-07-06T00:53:54.580Z,1013.82
2016-07-06T00:54:04.576Z,1013.73
2016-07-06T00:54:14.552Z,1013.73
2016-07-06T00:54:24.551Z,1013.79
2016-07-06T00:54:34.551Z,1013.82
2016-07-06T00:54:44.555Z,1013.82
2016-07-06T00:54:54.546Z,1013.82
2016-07-06T00:55:04.546Z,1013.86
2016-07-06T00:55:14.542Z,1013.79
2016-07-06T00:55:24.536Z,1013.84
2016-07-06T00:55:34.522Z,1013.82
2016-07-06T00:55:44.527Z,1013.81
2016-07-06T00:55:54.524Z,1013.8
2016-07-06T00:56:04.505Z,1013.84
2016-07-06T00:56:14.509Z,1013.82
2016-07-06T00:56:24.499Z,1013.83
2016-07-06T00:56:34.501Z,1013.82
2016-07-06T00:56:44.494Z,1013.85
2016-07-06T00:56:54.486Z,1013.81
2016-07-06T00:57:04.488Z,1013.83
2016-07-06T00:57:14.486Z,1013.83
2016-07-06T00:57:24.475Z,1013.79
2016-07-06T00:57:34.472Z,1013.85
2016-07-06T00:57:44.463Z,1013.85
2016-07-06T00:57:54.454Z,1013.85
2016-07-06T00:58:04.435Z,1013.85
2016-07-06T00:58:14.457Z,1013.85
2016-07-06T00:58:24.453Z,1013.9
2016-07-06T00:58:34.442Z,1013.9
2016-07-06T00:58:44.439Z,1013.87
2016-07-06T00:58:54.437Z,1013.81
2016-07-06T00:59:04.427Z,1013.89
2016-07-06T00:59:14.423Z,1013.87
2016-07-06T00:59:24.420Z,1013.89
2016-07-06T00:59:34.415Z,1013.92
2016-07-06T00:59:44.391Z,1013.91
2016-07-06T00:59:54.387Z,1013.88
2016-07-06T01:00:04.402Z,1013.89
2016-07-06T01:00:14.397Z,1013.87
2016-07-06T01:00:24.387Z,1013.93
2016-07-06T01:00:34.383Z,1013.88
2016-07-06T01:00:44.379Z,1013.85
2016-07-06T01:00:54.373Z,1013.91
2016-07-06T01:01:04.368Z,1013.88
2016-07-06T01:01:14.369Z,1013.86
2016-07-06T01:01:24.358Z,1013.91
2016-07-06T01:01:34.361Z,1013.84
2016-07-06T01:01:44.353Z,1013.86
2016-07-06T01:01:54.341Z,1013.93
2016-07-06T01:02:04.339Z,1013.94
2016-07-06T01:02:14.331Z,1013.91
2016-07-06T01:02:24.325Z,1013.86
2016-07-06T01:02:34.325Z,1013.85
2016-07-06T01:02:44.314Z,1013.88
2016-07-06T01:02:54.310Z,1013.9
2016-07-06T01:03:04.309Z,1013.91
2016-07-06T01:03:14.304Z,1013.86
2016-07-06T01:03:24.305Z,1013.88
2016-07-06T01:03:34.290Z,1013.91
2016-07-06T01:03:44.281Z,1013.93
2016-07-06T01:03:54.281Z,1013.91
2016-07-06T01:04:04.279Z,1013.93
2016-07-06T01:04:14.264Z,1013.94
2016-07-06T01:04:24.267Z,1013.89
2016-07-06T01:04:34.256Z,1013.92
2016-07-06T01:04:44.256Z,1013.95
2016-07-06T01:04:54.247Z,1013.95
2016-07-06T01:05:04.250Z,1013.91
2016-07-06T01:05:14.237Z,1013.92
2016-07-06T01:05:24.238Z,1013.95
2016-07-06T01:05:34.239Z,1013.91
2016-07-06T01:05:44.229Z,1013.94
2016-07-06T01:05:54.511Z,1013.93
2016-07-06T01:06:04.213Z,1013.9
2016-07-06T01:06:14.208Z,1013.92
2016-07-06T01:06:24.198Z,1013.95
2016-07-06T01:06:34.201Z,1013.93
2016-07-06T01:06:44.191Z,1013.95
2016-07-06T01:06:54.184Z,1013.95
2016-07-06T01:07:04.173Z,1014
2016-07-06T01:07:14.175Z,1013.95
2016-07-06T01:07:24.173Z,1014
2016-07-06T01:07:34.175Z,1013.94
2016-07-06T01:07:44.391Z,1013.97
2016-07-06T01:07:54.413Z,1013.95
2016-07-06T01:08:04.208Z,1013.95
2016-07-06T01:08:14.255Z,1013.96
2016-07-06T01:08:24.196Z,1013.95
2016-07-06T01:08:34.310Z,1013.97
2016-07-06T01:08:44.135Z,1013.94
2016-07-06T01:08:54.245Z,1014
2016-07-06T01:09:04.138Z,1013.99
2016-07-06T01:09:14.124Z,1014.02
2016-07-06T01:09:24.332Z,1014.01
2016-07-06T01:09:34.337Z,1013.99
2016-07-06T01:09:44.269Z,1013.98
2016-07-06T01:09:54.138Z,1013.97
2016-07-06T01:10:04.263Z,1013.97
2016-07-06T01:10:14.319Z,1014
2016-07-06T01:10:24.835Z,1013.99
2016-07-06T01:10:34.262Z,1014.03
2016-07-06T01:10:44.078Z,1013.99
2016-07-06T01:10:54.129Z,1013.99
2016-07-06T01:11:04.282Z,1013.95
2016-07-06T01:11:14.061Z,1014
2016-07-06T01:11:24.213Z,1014
2016-07-06T01:11:34.222Z,1013.99
2016-07-06T01:11:44.048Z,1014.01
2016-07-06T01:11:54.046Z,1014.02
2016-07-06T01:12:04.247Z,1014.01
2016-07-06T01:12:14.050Z,1013.99
2016-07-06T01:12:24.025Z,1014.01
2016-07-06T01:12:34.024Z,1013.99
2016-07-06T01:12:44.017Z,1013.98
2016-07-06T01:12:54.014Z,1014
2016-07-06T01:13:04.011Z,1014.01
2016-07-06T01:13:14.003Z,1013.98
2016-07-06T01:13:23.998Z,1013.98
2016-07-06T01:13:33.991Z,1014.01
2016-07-06T01:13:43.986Z,1014.03
2016-07-06T01:13:53.987Z,1014.05
2016-07-06T01:14:03.969Z,1013.99
2016-07-06T01:14:13.963Z,1014.02
2016-07-06T01:14:23.979Z,1013.98
2016-07-06T01:14:33.955Z,1013.98
2016-07-06T01:14:43.954Z,1013.96
2016-07-06T01:14:53.949Z,1013.98
2016-07-06T01:15:03.944Z,1014.02
2016-07-06T01:15:13.932Z,1014
2016-07-06T01:15:23.932Z,1013.96
2016-07-06T01:15:33.914Z,1014.04
2016-07-06T01:15:43.919Z,1013.97
2016-07-06T01:15:53.919Z,1014.01
2016-07-06T01:16:03.896Z,1014.01
2016-07-06T01:16:13.908Z,1014.04
2016-07-06T01:16:23.899Z,1014.01
2016-07-06T01:16:33.879Z,1013.99
2016-07-06T01:16:43.878Z,1014.01
2016-07-06T01:16:53.865Z,1014.01
2016-07-06T01:17:03.885Z,1013.98
2016-07-06T01:17:13.877Z,1014.02
2016-07-06T01:17:23.859Z,1014
2016-07-06T01:17:33.851Z,1013.99
2016-07-06T01:17:43.853Z,1014.01
2016-07-06T01:17:53.857Z,1014.03
2016-07-06T01:18:03.852Z,1014.01
2016-07-06T01:18:13.827Z,1013.99
2016-07-06T01:18:23.844Z,1013.98
2016-07-06T01:18:33.819Z,1013.99
2016-07-06T01:18:43.818Z,1013.96
2016-07-06T01:18:53.810Z,1013.96
2016-07-06T01:19:03.810Z,1013.94
2016-07-06T01:19:13.799Z,1013.93
2016-07-06T01:19:23.814Z,1013.97
2016-07-06T01:19:33.785Z,1013.91
2016-07-06T01:19:43.800Z,1013.91
2016-07-06T01:19:53.778Z,1013.93
2016-07-06T01:20:03.796Z,1013.94
2016-07-06T01:20:13.791Z,1013.95
2016-07-06T01:20:23.765Z,1013.92
2016-07-06T01:20:33.772Z,1013.91
2016-07-06T01:20:43.758Z,1013.91
2016-07-06T01:20:53.769Z,1013.88
2016-07-06T01:21:03.764Z,1013.93
2016-07-06T01:21:13.755Z,1013.93
2016-07-06T01:21:23.749Z,1013.89
2016-07-06T01:21:33.750Z,1013.91
2016-07-06T01:21:43.746Z,1013.95
2016-07-06T01:21:53.729Z,1013.89
2016-07-06T01:22:03.738Z,1013.92
2016-07-06T01:22:13.726Z,1013.92
2016-07-06T01:22:23.722Z,1013.92
2016-07-06T01:22:33.714Z,1013.91
2016-07-06T01:22:43.698Z,1013.91
2016-07-06T01:22:53.688Z,1013.93
2016-07-06T01:23:03.681Z,1013.9
2016-07-06T01:23:13.700Z,1013.87
2016-07-06T01:23:23.692Z,1013.97
2016-07-06T01:23:33.689Z,1013.91
2016-07-06T01:23:43.686Z,1013.91
2016-07-06T01:23:53.675Z,1013.93
2016-07-06T01:24:03.672Z,1013.9
2016-07-06T01:24:13.646Z,1013.93
2016-07-06T01:24:23.659Z,1013.9
2016-07-06T01:24:33.640Z,1013.9
2016-07-06T01:24:43.650Z,1013.92
2016-07-06T01:24:53.636Z,1013.95
2016-07-06T01:25:03.642Z,1013.9
2016-07-06T01:25:13.636Z,1013.96
2016-07-06T01:25:23.634Z,1013.92
2016-07-06T01:25:33.604Z,1013.94
2016-07-06T01:25:43.603Z,1013.97
2016-07-06T01:25:53.617Z,1013.98
2016-07-06T01:26:03.610Z,1013.96
2016-07-06T01:26:13.608Z,1013.97
2016-07-06T01:26:23.583Z,1013.94
2016-07-06T01:26:33.604Z,1013.91
2016-07-06T01:26:43.591Z,1013.95
2016-07-06T01:26:53.596Z,1013.95
2016-07-06T01:27:03.579Z,1013.98
2016-07-06T01:27:13.573Z,1013.98
2016-07-06T01:27:23.561Z,1013.98
2016-07-06T01:27:33.543Z,1013.99
2016-07-06T01:27:43.544Z,1013.98
2016-07-06T01:27:53.556Z,1014.02
2016-07-06T01:28:03.541Z,1014.01
2016-07-06T01:28:13.544Z,1013.98
2016-07-06T01:28:23.537Z,1014.01
2016-07-06T01:28:33.515Z,1014
2016-07-06T01:28:43.530Z,1014.02
2016-07-06T01:28:53.523Z,1013.98
2016-07-06T01:29:03.521Z,1014.01
2016-07-06T01:29:13.498Z,1014
2016-07-06T01:29:23.505Z,1014.03
2016-07-06T01:29:33.490Z,1013.99
2016-07-06T01:29:43.485Z,1013.99
2016-07-06T01:29:53.496Z,1014
2016-07-06T01:30:03.490Z,1014.01
2016-07-06T01:30:13.466Z,1013.99
2016-07-06T01:30:23.469Z,1013.96
2016-07-06T01:30:33.477Z,1014
2016-07-06T01:30:43.472Z,1014.02
2016-07-06T01:30:53.468Z,1013.99
2016-07-06T01:31:03.443Z,1014.01
2016-07-06T01:31:13.437Z,1014
2016-07-06T01:31:23.443Z,1014.04
2016-07-06T01:31:33.451Z,1014.01
2016-07-06T01:31:43.419Z,1014.04
2016-07-06T01:31:53.435Z,1014.01
2016-07-06T01:32:03.413Z,1014.01
2016-07-06T01:32:13.406Z,1014.03
2016-07-06T01:32:23.403Z,1014.02
2016-07-06T01:32:33.416Z,1014
2016-07-06T01:32:43.394Z,1014.04
2016-07-06T01:32:53.406Z,1014.03
2016-07-06T01:33:03.396Z,1014.05
2016-07-06T01:33:13.374Z,1014.04
2016-07-06T01:33:23.388Z,1013.99
2016-07-06T01:33:33.383Z,1014.03
2016-07-06T01:33:43.377Z,1014.03
2016-07-06T01:33:53.366Z,1014.04
2016-07-06T01:34:03.373Z,1014.06
2016-07-06T01:34:13.361Z,1014.06
2016-07-06T01:34:23.371Z,1014.03
2016-07-06T01:34:34.002Z,1014.05
2016-07-06T01:34:43.348Z,1014.01
2016-07-06T01:34:53.338Z,1014.03
2016-07-06T01:35:03.335Z,1014.05
2016-07-06T01:35:13.335Z,1014.05
2016-07-06T01:35:23.333Z,1014.07
2016-07-06T01:35:33.323Z,1014.09
2016-07-06T01:35:43.319Z,1014.1
2016-07-06T01:35:53.314Z,1014.05
2016-07-06T01:36:03.311Z,1014.05
2016-07-06T01:36:13.292Z,1014.07
2016-07-06T01:36:23.312Z,1014.08
2016-07-06T01:36:33.292Z,1014.04
2016-07-06T01:36:43.287Z,1014.06
2016-07-06T01:36:53.280Z,1014.07
2016-07-06T01:37:03.284Z,1014.07
2016-07-06T01:37:13.285Z,1014.02
2016-07-06T01:37:23.269Z,1014.05
2016-07-06T01:37:33.261Z,1014.09
2016-07-06T01:37:43.264Z,1014.07
2016-07-06T01:37:53.256Z,1014.06
2016-07-06T01:38:03.257Z,1014.08
2016-07-06T01:38:13.247Z,1014.1
2016-07-06T01:38:23.239Z,1014.08
2016-07-06T01:38:33.241Z,1014.08
2016-07-06T01:38:43.232Z,1014.05
2016-07-06T01:38:53.240Z,1014.08
2016-07-06T01:39:03.223Z,1014.06
2016-07-06T01:39:13.230Z,1014.04
2016-07-06T01:39:23.216Z,1014.08
2016-07-06T01:39:33.203Z,1014.09
2016-07-06T01:39:43.198Z,1014.03
2016-07-06T01:39:53.193Z,1014.08
2016-07-06T01:40:03.188Z,1014.09
2016-07-06T01:40:13.180Z,1014.03
2016-07-06T01:40:23.177Z,1014.08
2016-07-06T01:40:33.174Z,1014.07
2016-07-06T01:40:43.170Z,1014.07
2016-07-06T01:40:53.164Z,1014.04
2016-07-06T01:41:03.164Z,1014.08
2016-07-06T01:41:13.156Z,1014.07
2016-07-06T01:41:23.150Z,1014.08
2016-07-06T01:41:33.144Z,1014.05
2016-07-06T01:41:43.126Z,1014.03
2016-07-06T01:41:53.133Z,1014.08
2016-07-06T01:42:03.130Z,1014.09
2016-07-06T01:42:13.127Z,1014.1
2016-07-06T01:42:23.119Z,1014.06
2016-07-06T01:42:33.112Z,1014.01
2016-07-06T01:42:43.105Z,1014.05
2016-07-06T01:42:53.100Z,1014.05
2016-07-06T01:43:03.096Z,1014.05
2016-07-06T01:43:13.091Z,1014.06
2016-07-06T01:43:23.086Z,1014.02
2016-07-06T01:43:33.082Z,1014.1
2016-07-06T01:43:43.079Z,1014.07
2016-07-06T01:43:53.072Z,1014.03
2016-07-06T01:44:03.056Z,1014.07
2016-07-06T01:44:13.064Z,1014.04
2016-07-06T01:44:23.056Z,1014.03
2016-07-06T01:44:33.050Z,1014.06
2016-07-06T01:44:43.046Z,1014.07
2016-07-06T01:44:53.038Z,1014.06
2016-07-06T01:45:03.034Z,1014.05
2016-07-06T01:45:13.034Z,1014.03
2016-07-06T01:45:23.020Z,1014.07
2016-07-06T01:45:33.011Z,1014.02
2016-07-06T01:45:43.007Z,1014.06
2016-07-06T01:45:53.000Z,1014.04
2016-07-06T01:46:03.006Z,1014.06
2016-07-06T01:46:12.996Z,1014.07
2016-07-06T01:46:22.999Z,1014.07
2016-07-06T01:46:32.992Z,1014.08
2016-07-06T01:46:42.987Z,1014.06
2016-07-06T01:46:52.984Z,1014.1
2016-07-06T01:47:02.978Z,1014.12
2016-07-06T01:47:12.976Z,1014.11
2016-07-06T01:47:22.955Z,1014.04
2016-07-06T01:47:32.967Z,1014.08
2016-07-06T01:47:42.954Z,1014.1
2016-07-06T01:47:52.947Z,1014.08
2016-07-06T01:48:02.948Z,1014.12
2016-07-06T01:48:12.944Z,1014.08
2016-07-06T01:48:22.935Z,1014.05
2016-07-06T01:48:32.927Z,1014.09
2016-07-06T01:48:42.933Z,1014.05
2016-07-06T01:48:52.926Z,1014.08
2016-07-06T01:49:02.917Z,1014.02
2016-07-06T01:49:13.548Z,1014.07
2016-07-06T01:49:22.910Z,1014.04
2016-07-06T01:49:32.903Z,1014.05
2016-07-06T01:49:42.892Z,1014.05
2016-07-06T01:49:52.890Z,1014.06
2016-07-06T01:50:02.887Z,1014.07
2016-07-06T01:50:12.882Z,1014.05
2016-07-06T01:50:22.864Z,1014.06
2016-07-06T01:50:32.865Z,1014.12
2016-07-06T01:50:42.869Z,1014.08
2016-07-06T01:50:52.865Z,1014.08
2016-07-06T01:51:02.852Z,1014.08
2016-07-06T01:51:12.851Z,1014.09
2016-07-06T01:51:22.844Z,1014.12
2016-07-06T01:51:32.838Z,1014.04
2016-07-06T01:51:42.838Z,1014.08
2016-07-06T01:51:52.835Z,1014.09
2016-07-06T01:52:02.831Z,1014.06
2016-07-06T01:52:12.825Z,1014.08
2016-07-06T01:52:22.801Z,1014.09
2016-07-06T01:52:32.811Z,1014.07
2016-07-06T01:52:42.810Z,1014.07
2016-07-06T01:52:52.798Z,1014.13
2016-07-06T01:53:02.776Z,1014.06
2016-07-06T01:53:12.787Z,1014.09
2016-07-06T01:53:22.774Z,1014.17
2016-07-06T01:53:32.781Z,1014.1
2016-07-06T01:53:42.765Z,1014.13
2016-07-06T01:53:52.757Z,1014.14
2016-07-06T01:54:02.760Z,1014.09
2016-07-06T01:54:12.757Z,1014.08
2016-07-06T01:54:22.755Z,1014.09
2016-07-06T01:54:32.751Z,1014.1
2016-07-06T01:54:42.748Z,1014.08
2016-07-06T01:54:52.742Z,1014.1
2016-07-06T01:55:02.738Z,1014.1
2016-07-06T01:55:12.722Z,1014.1
2016-07-06T01:55:22.711Z,1014.09
2016-07-06T01:55:32.699Z,1014.15
2016-07-06T01:55:42.695Z,1014.1
2016-07-06T01:55:52.695Z,1014.11
2016-07-06T01:56:02.698Z,1014.12
2016-07-06T01:56:12.701Z,1014.12
2016-07-06T01:56:22.692Z,1014.1
2016-07-06T01:56:32.683Z,1014.15
2016-07-06T01:56:42.668Z,1014.11
2016-07-06T01:56:52.662Z,1014.13
2016-07-06T01:57:02.654Z,1014.15
2016-07-06T01:57:12.673Z,1014.13
2016-07-06T01:57:22.648Z,1014.18
2016-07-06T01:57:32.642Z,1014.16
2016-07-06T01:57:42.651Z,1014.15
2016-07-06T01:57:52.647Z,1014.17
2016-07-06T01:58:02.628Z,1014.15
2016-07-06T01:58:12.640Z,1014.16
2016-07-06T01:58:22.623Z,1014.12
2016-07-06T01:58:32.627Z,1014.15
2016-07-06T01:58:42.620Z,1014.14
2016-07-06T01:58:52.618Z,1014.15
2016-07-06T01:59:02.613Z,1014.15
2016-07-06T01:59:12.592Z,1014.16
2016-07-06T01:59:22.620Z,1014.15
2016-07-06T01:59:32.605Z,1014.11
2016-07-06T01:59:42.599Z,1014.12
2016-07-06T01:59:53.232Z,1014.12
2016-07-06T02:00:02.586Z,1014.15
2016-07-06T02:00:12.589Z,1014.16
2016-07-06T02:00:22.576Z,1014.21
2016-07-06T02:00:32.575Z,1014.19
2016-07-06T02:00:42.566Z,1014.2
2016-07-06T02:00:52.567Z,1014.16
2016-07-06T02:01:02.559Z,1014.2
2016-07-06T02:01:12.555Z,1014.15
2016-07-06T02:01:22.552Z,1014.17